sensor_id;sensor_type;location;lat;lon;timestamp;pressure;altitude;pressure_sealevel;temperature;humidity
75166;BME280;63747;48.042;10.088;2023-12-20T00:02:23;95257.28;;;2.92;58.16
75166;BME280;63747;48.042;10.088;2023-12-20T00:05:24;95250.81;;;2.96;58.09
75166;BME280;63747;48.042;10.088;2023-12-20T00:08:25;95250.00;;;2.95;58.16
75166;BME280;63747;48.042;10.088;2023-12-20T00:11:25;95260.75;;;2.92;58.38
75166;BME280;63747;48.042;10.088;2023-12-20T00:14:26;95266.06;;;2.91;58.85
75166;BME280;63747;48.042;10.088;2023-12-20T00:17:27;95256.00;;;2.86;58.89
75166;BME280;63747;48.042;10.088;2023-12-20T00:20:28;95254.06;;;2.88;59.08
75166;BME280;63747;48.042;10.088;2023-12-20T00:23:29;95256.81;;;2.87;59.27
75166;BME280;63747;48.042;10.088;2023-12-20T00:26:30;95244.22;;;2.81;59.53
75166;BME280;63747;48.042;10.088;2023-12-20T00:29:31;95249.00;;;2.76;60.17
75166;BME280;63747;48.042;10.088;2023-12-20T00:32:31;95238.06;;;2.70;61.02
75166;BME280;63747;48.042;10.088;2023-12-20T00:35:32;95243.56;;;2.67;61.35
75166;BME280;63747;48.042;10.088;2023-12-20T00:38:33;95230.38;;;2.58;62.14
75166;BME280;63747;48.042;10.088;2023-12-20T00:41:33;95215.41;;;2.60;62.15
75166;BME280;63747;48.042;10.088;2023-12-20T00:44:34;95210.03;;;2.61;62.36
75166;BME280;63747;48.042;10.088;2023-12-20T00:47:35;95208.25;;;2.62;62.50
75166;BME280;63747;48.042;10.088;2023-12-20T00:50:36;95192.09;;;2.57;62.95
75166;BME280;63747;48.042;10.088;2023-12-20T00:53:36;95168.53;;;2.57;63.33
75166;BME280;63747;48.042;10.088;2023-12-20T00:56:37;95166.25;;;2.63;63.23
75166;BME280;63747;48.042;10.088;2023-12-20T00:59:37;95166.16;;;2.65;63.13
75166;BME280;63747;48.042;10.088;2023-12-20T01:02:38;95169.47;;;2.67;63.50
75166;BME280;63747;48.042;10.088;2023-12-20T01:05:39;95173.41;;;2.61;63.93
75166;BME280;63747;48.042;10.088;2023-12-20T01:08:40;95180.16;;;2.64;64.34
75166;BME280;63747;48.042;10.088;2023-12-20T01:11:40;95185.41;;;2.64;64.54
75166;BME280;63747;48.042;10.088;2023-12-20T01:14:41;95185.66;;;2.61;64.91
75166;BME280;63747;48.042;10.088;2023-12-20T01:17:42;95178.31;;;2.55;65.77
75166;BME280;63747;48.042;10.088;2023-12-20T01:20:43;95175.97;;;2.52;66.01
75166;BME280;63747;48.042;10.088;2023-12-20T01:23:44;95157.75;;;2.50;66.04
75166;BME280;63747;48.042;10.088;2023-12-20T01:26:44;95137.28;;;2.55;65.91
75166;BME280;63747;48.042;10.088;2023-12-20T01:29:45;95125.72;;;2.58;65.82
75166;BME280;63747;48.042;10.088;2023-12-20T01:32:46;95117.88;;;2.58;65.80
75166;BME280;63747;48.042;10.088;2023-12-20T01:35:47;95137.78;;;2.49;66.64
75166;BME280;63747;48.042;10.088;2023-12-20T01:38:47;95153.00;;;2.44;67.18
75166;BME280;63747;48.042;10.088;2023-12-20T01:41:48;95164.84;;;2.38;67.76
75166;BME280;63747;48.042;10.088;2023-12-20T01:44:49;95151.41;;;2.32;68.06
75166;BME280;63747;48.042;10.088;2023-12-20T01:47:50;95156.25;;;2.36;67.82
75166;BME280;63747;48.042;10.088;2023-12-20T01:50:51;95152.56;;;2.39;67.99
75166;BME280;63747;48.042;10.088;2023-12-20T01:53:52;95147.44;;;2.37;68.29
75166;BME280;63747;48.042;10.088;2023-12-20T01:56:54;95147.44;;;2.37;69.21
75166;BME280;63747;48.042;10.088;2023-12-20T01:59:55;95150.06;;;2.37;69.37
75166;BME280;63747;48.042;10.088;2023-12-20T02:02:59;95154.09;;;2.41;69.05
75166;BME280;63747;48.042;10.088;2023-12-20T02:06:01;95155.06;;;2.40;69.23
75166;BME280;63747;48.042;10.088;2023-12-20T02:09:01;95146.94;;;2.43;68.98
75166;BME280;63747;48.042;10.088;2023-12-20T02:12:03;95150.84;;;2.49;69.03
75166;BME280;63747;48.042;10.088;2023-12-20T02:15:04;95143.72;;;2.51;69.06
75166;BME280;63747;48.042;10.088;2023-12-20T02:18:05;95140.25;;;2.51;68.96
75166;BME280;63747;48.042;10.088;2023-12-20T02:21:06;95136.50;;;2.43;69.66
75166;BME280;63747;48.042;10.088;2023-12-20T02:24:07;95153.34;;;2.51;69.61
75166;BME280;63747;48.042;10.088;2023-12-20T02:27:08;95149.25;;;2.58;69.53
75166;BME280;63747;48.042;10.088;2023-12-20T02:30:10;95147.28;;;2.50;70.26
75166;BME280;63747;48.042;10.088;2023-12-20T02:33:12;95154.44;;;2.48;70.46
75166;BME280;63747;48.042;10.088;2023-12-20T02:36:13;95154.56;;;2.47;70.67
75166;BME280;63747;48.042;10.088;2023-12-20T02:39:14;95153.59;;;2.48;70.60
75166;BME280;63747;48.042;10.088;2023-12-20T02:42:14;95149.06;;;2.50;70.38
75166;BME280;63747;48.042;10.088;2023-12-20T02:45:15;95161.59;;;2.46;70.99
75166;BME280;63747;48.042;10.088;2023-12-20T02:48:16;95145.63;;;2.49;70.83
75166;BME280;63747;48.042;10.088;2023-12-20T02:51:16;95145.50;;;2.51;70.80
75166;BME280;63747;48.042;10.088;2023-12-20T02:54:17;95143.72;;;2.51;70.94
75166;BME280;63747;48.042;10.088;2023-12-20T02:57:17;95152.50;;;2.50;71.03
75166;BME280;63747;48.042;10.088;2023-12-20T03:00:18;95148.94;;;2.51;71.28
75166;BME280;63747;48.042;10.088;2023-12-20T03:03:19;95148.94;;;2.51;71.05
75166;BME280;63747;48.042;10.088;2023-12-20T03:06:20;95143.84;;;2.50;71.44
75166;BME280;63747;48.042;10.088;2023-12-20T03:09:21;95142.88;;;2.51;71.33
75166;BME280;63747;48.042;10.088;2023-12-20T03:12:21;95148.38;;;2.48;71.52
75166;BME280;63747;48.042;10.088;2023-12-20T03:15:22;95148.94;;;2.51;71.48
75166;BME280;63747;48.042;10.088;2023-12-20T03:18:23;95149.66;;;2.53;71.34
75166;BME280;63747;48.042;10.088;2023-12-20T03:21:23;95155.72;;;2.54;71.65
75166;BME280;63747;48.042;10.088;2023-12-20T03:24:24;95152.41;;;2.52;71.37
75166;BME280;63747;48.042;10.088;2023-12-20T03:27:24;95152.16;;;2.55;71.16
75166;BME280;63747;48.042;10.088;2023-12-20T03:30:25;95161.91;;;2.53;71.38
75166;BME280;63747;48.042;10.088;2023-12-20T03:33:26;95157.19;;;2.47;71.55
75166;BME280;63747;48.042;10.088;2023-12-20T03:36:26;95148.84;;;2.53;71.24
75166;BME280;63747;48.042;10.088;2023-12-20T03:39:27;95149.78;;;2.52;71.33
75166;BME280;63747;48.042;10.088;2023-12-20T03:42:28;95144.56;;;2.52;71.45
75166;BME280;63747;48.042;10.088;2023-12-20T03:45:28;95139.34;;;2.52;71.46
75166;BME280;63747;48.042;10.088;2023-12-20T03:48:30;95139.88;;;2.55;71.51
75166;BME280;63747;48.042;10.088;2023-12-20T03:51:31;95143.72;;;2.51;71.67
75166;BME280;63747;48.042;10.088;2023-12-20T03:54:31;95141.22;;;2.50;71.63
75166;BME280;63747;48.042;10.088;2023-12-20T03:57:32;95133.25;;;2.51;71.66
75166;BME280;63747;48.042;10.088;2023-12-20T04:00:33;95135.28;;;2.48;71.97
75166;BME280;63747;48.042;10.088;2023-12-20T04:03:34;95158.25;;;2.44;72.27
75166;BME280;63747;48.042;10.088;2023-12-20T04:06:34;95158.78;;;2.38;72.34
75166;BME280;63747;48.042;10.088;2023-12-20T04:09:35;95161.75;;;2.33;72.94
75166;BME280;63747;48.042;10.088;2023-12-20T04:12:36;95155.09;;;2.29;72.79
75166;BME280;63747;48.042;10.088;2023-12-20T04:15:37;95167.94;;;2.32;73.21
75166;BME280;63747;48.042;10.088;2023-12-20T04:18:38;95166.50;;;2.28;73.32
75166;BME280;63747;48.042;10.088;2023-12-20T04:21:39;95174.84;;;2.22;73.63
75166;BME280;63747;48.042;10.088;2023-12-20T04:24:39;95173.66;;;2.26;73.58
75166;BME280;63747;48.042;10.088;2023-12-20T04:27:42;95184.47;;;2.22;74.24
75166;BME280;63747;48.042;10.088;2023-12-20T04:30:43;95186.63;;;2.16;74.25
75166;BME280;63747;48.042;10.088;2023-12-20T04:33:43;95190.19;;;2.15;74.33
75166;BME280;63747;48.042;10.088;2023-12-20T04:36:44;95197.09;;;2.16;74.37
75166;BME280;63747;48.042;10.088;2023-12-20T04:39:45;95201.50;;;2.16;74.34
75166;BME280;63747;48.042;10.088;2023-12-20T04:42:46;95214.47;;;2.18;74.21
75166;BME280;63747;48.042;10.088;2023-12-20T04:45:47;95224.19;;;2.15;74.61
75166;BME280;63747;48.042;10.088;2023-12-20T04:48:47;95223.97;;;2.07;74.78
75166;BME280;63747;48.042;10.088;2023-12-20T04:51:48;95225.06;;;2.05;74.61
75166;BME280;63747;48.042;10.088;2023-12-20T04:54:49;95228.38;;;2.07;74.55
75166;BME280;63747;48.042;10.088;2023-12-20T04:57:50;95229.69;;;2.01;74.70
75166;BME280;63747;48.042;10.088;2023-12-20T05:00:50;95235.16;;;1.98;74.51
75166;BME280;63747;48.042;10.088;2023-12-20T05:03:51;95242.66;;;1.92;74.57
75166;BME280;63747;48.042;10.088;2023-12-20T05:06:52;95240.50;;;1.85;74.78
75166;BME280;63747;48.042;10.088;2023-12-20T05:09:52;95237.78;;;1.76;75.00
75166;BME280;63747;48.042;10.088;2023-12-20T05:12:53;95238.16;;;1.71;74.79
75166;BME280;63747;48.042;10.088;2023-12-20T05:15:54;95240.75;;;1.71;74.78
75166;BME280;63747;48.042;10.088;2023-12-20T05:18:54;95252.38;;;1.67;74.92
75166;BME280;63747;48.042;10.088;2023-12-20T05:21:56;95251.44;;;1.68;74.89
75166;BME280;63747;48.042;10.088;2023-12-20T05:24:56;95263.66;;;1.68;75.10
75166;BME280;63747;48.042;10.088;2023-12-20T05:27:57;95258.44;;;1.68;74.98
75166;BME280;63747;48.042;10.088;2023-12-20T05:30:58;95257.59;;;1.67;75.23
75166;BME280;63747;48.042;10.088;2023-12-20T05:33:59;95257.94;;;1.63;75.59
75166;BME280;63747;48.042;10.088;2023-12-20T05:37:02;95258.56;;;1.66;75.21
75166;BME280;63747;48.042;10.088;2023-12-20T05:40:03;95259.25;;;1.68;75.13
75166;BME280;63747;48.042;10.088;2023-12-20T05:43:04;95265.56;;;1.66;75.30
75166;BME280;63747;48.042;10.088;2023-12-20T05:46:05;95271.38;;;1.69;75.23
75166;BME280;63747;48.042;10.088;2023-12-20T05:49:06;95275.56;;;1.72;75.46
75166;BME280;63747;48.042;10.088;2023-12-20T05:52:07;95281.63;;;1.72;75.05
75166;BME280;63747;48.042;10.088;2023-12-20T05:55:08;95276.16;;;1.64;75.42
75166;BME280;63747;48.042;10.088;2023-12-20T05:58:08;95296.09;;;1.65;75.37
75166;BME280;63747;48.042;10.088;2023-12-20T06:01:09;95306.75;;;1.62;75.61
75166;BME280;63747;48.042;10.088;2023-12-20T06:04:09;95313.44;;;1.66;75.55
75166;BME280;63747;48.042;10.088;2023-12-20T06:07:14;95283.28;;;1.73;75.25
75166;BME280;63747;48.042;10.088;2023-12-20T06:10:15;95296.34;;;1.73;75.43
75166;BME280;63747;48.042;10.088;2023-12-20T06:13:15;95292.06;;;1.72;75.24
75166;BME280;63747;48.042;10.088;2023-12-20T06:16:16;95283.03;;;1.76;75.21
75166;BME280;63747;48.042;10.088;2023-12-20T06:19:17;95291.09;;;1.73;75.45
75166;BME280;63747;48.042;10.088;2023-12-20T06:22:17;95289.19;;;1.75;75.59
75166;BME280;63747;48.042;10.088;2023-12-20T06:25:18;95292.66;;;1.76;75.47
75166;BME280;63747;48.042;10.088;2023-12-20T06:28:19;95282.31;;;1.74;75.54
75166;BME280;63747;48.042;10.088;2023-12-20T06:31:19;95276.88;;;1.77;75.61
75166;BME280;63747;48.042;10.088;2023-12-20T06:34:20;95296.34;;;1.84;75.52
75166;BME280;63747;48.042;10.088;2023-12-20T06:37:21;95304.28;;;1.83;75.72
75166;BME280;63747;48.042;10.088;2023-12-20T06:40:21;95314.19;;;1.91;75.50
75166;BME280;63747;48.042;10.088;2023-12-20T06:43:22;95305.25;;;1.93;75.52
75166;BME280;63747;48.042;10.088;2023-12-20T06:46:23;95301.47;;;1.97;75.47
75166;BME280;63747;48.042;10.088;2023-12-20T06:49:23;95306.78;;;1.96;75.66
75166;BME280;63747;48.042;10.088;2023-12-20T06:52:24;95312.16;;;1.94;75.87
75166;BME280;63747;48.042;10.088;2023-12-20T06:55:25;95318.00;;;1.98;75.79
75166;BME280;63747;48.042;10.088;2023-12-20T06:58:25;95309.91;;;2.01;75.78
75166;BME280;63747;48.042;10.088;2023-12-20T07:01:26;95312.25;;;2.04;75.51
75166;BME280;63747;48.042;10.088;2023-12-20T07:04:27;95328.56;;;2.07;75.63
75166;BME280;63747;48.042;10.088;2023-12-20T07:07:27;95339.00;;;2.07;75.76
75166;BME280;63747;48.042;10.088;2023-12-20T07:10:28;95340.53;;;2.10;75.70
75166;BME280;63747;48.042;10.088;2023-12-20T07:13:29;95347.91;;;2.16;75.62
75166;BME280;63747;48.042;10.088;2023-12-20T07:16:30;95344.13;;;2.20;75.82
75166;BME280;63747;48.042;10.088;2023-12-20T07:19:31;95341.63;;;2.19;75.88
75166;BME280;63747;48.042;10.088;2023-12-20T07:22:33;95340.44;;;2.23;75.84
75166;BME280;63747;48.042;10.088;2023-12-20T07:25:34;95337.00;;;2.22;75.73
75166;BME280;63747;48.042;10.088;2023-12-20T07:28:34;95344.34;;;2.28;76.09
75166;BME280;63747;48.042;10.088;2023-12-20T07:31:35;95346.97;;;2.28;76.16
75166;BME280;63747;48.042;10.088;2023-12-20T07:34:36;95348.16;;;2.35;76.09
75166;BME280;63747;48.042;10.088;2023-12-20T07:37:36;95361.25;;;2.35;75.87
75166;BME280;63747;48.042;10.088;2023-12-20T07:40:37;95358.03;;;2.32;76.30
75166;BME280;63747;48.042;10.088;2023-12-20T07:43:39;95359.94;;;2.41;76.08
75166;BME280;63747;48.042;10.088;2023-12-20T07:46:39;95365.03;;;2.42;75.86
75166;BME280;63747;48.042;10.088;2023-12-20T07:49:41;95366.47;;;2.47;75.95
75166;BME280;63747;48.042;10.088;2023-12-20T07:52:41;95376.34;;;2.43;76.33
75166;BME280;63747;48.042;10.088;2023-12-20T07:55:42;95377.41;;;2.40;76.31
75166;BME280;63747;48.042;10.088;2023-12-20T07:58:43;95381.81;;;2.40;76.55
75166;BME280;63747;48.042;10.088;2023-12-20T08:01:44;95379.34;;;2.38;77.02
75166;BME280;63747;48.042;10.088;2023-12-20T08:04:45;95375.75;;;2.39;77.38
75166;BME280;63747;48.042;10.088;2023-12-20T08:07:45;95378.25;;;2.41;77.05
75166;BME280;63747;48.042;10.088;2023-12-20T08:10:46;95385.97;;;2.42;77.00
75166;BME280;63747;48.042;10.088;2023-12-20T08:13:47;95390.97;;;2.46;77.15
75166;BME280;63747;48.042;10.088;2023-12-20T08:16:48;95381.91;;;2.50;77.19
75166;BME280;63747;48.042;10.088;2023-12-20T08:19:49;95381.69;;;2.53;77.37
75166;BME280;63747;48.042;10.088;2023-12-20T08:22:50;95383.94;;;2.57;77.27
75166;BME280;63747;48.042;10.088;2023-12-20T08:25:50;95379.19;;;2.62;77.05
75166;BME280;63747;48.042;10.088;2023-12-20T08:28:51;95378.81;;;2.67;76.88
75166;BME280;63747;48.042;10.088;2023-12-20T08:31:53;95370.63;;;2.72;76.57
75166;BME280;63747;48.042;10.088;2023-12-20T08:34:54;95378.78;;;2.78;76.58
75166;BME280;63747;48.042;10.088;2023-12-20T08:37:54;95375.94;;;2.81;76.68
75166;BME280;63747;48.042;10.088;2023-12-20T08:40:55;95376.28;;;2.88;76.67
75166;BME280;63747;48.042;10.088;2023-12-20T08:43:56;95380.22;;;2.93;76.51
75166;BME280;63747;48.042;10.088;2023-12-20T08:46:57;95382.34;;;3.00;76.49
75166;BME280;63747;48.042;10.088;2023-12-20T08:49:58;95386.63;;;3.01;76.53
75166;BME280;63747;48.042;10.088;2023-12-20T08:53:00;95388.28;;;3.02;76.62
75166;BME280;63747;48.042;10.088;2023-12-20T08:56:01;95379.59;;;3.01;76.58
75166;BME280;63747;48.042;10.088;2023-12-20T08:59:01;95380.63;;;3.10;76.44
75166;BME280;63747;48.042;10.088;2023-12-20T09:02:02;95388.75;;;3.07;76.47
75166;BME280;63747;48.042;10.088;2023-12-20T09:05:03;95387.94;;;3.06;76.51
75166;BME280;63747;48.042;10.088;2023-12-20T09:08:04;95385.88;;;2.98;76.84
75166;BME280;63747;48.042;10.088;2023-12-20T09:11:06;95391.84;;;3.01;76.77
75166;BME280;63747;48.042;10.088;2023-12-20T09:14:07;95405.03;;;3.10;76.74
75166;BME280;63747;48.042;10.088;2023-12-20T09:17:07;95394.06;;;3.16;76.20
75166;BME280;63747;48.042;10.088;2023-12-20T09:20:09;95388.25;;;3.13;76.28
75166;BME280;63747;48.042;10.088;2023-12-20T09:23:10;95377.88;;;3.22;76.14
75166;BME280;63747;48.042;10.088;2023-12-20T09:26:10;95371.03;;;3.31;76.31
75166;BME280;63747;48.042;10.088;2023-12-20T09:29:11;95370.78;;;3.45;75.91
75166;BME280;63747;48.042;10.088;2023-12-20T09:32:15;95372.31;;;3.48;75.81
75166;BME280;63747;48.042;10.088;2023-12-20T09:35:16;95372.19;;;3.49;75.93
75166;BME280;63747;48.042;10.088;2023-12-20T09:38:16;95384.53;;;3.59;75.68
75166;BME280;63747;48.042;10.088;2023-12-20T09:41:17;95380.00;;;3.61;75.39
75166;BME280;63747;48.042;10.088;2023-12-20T09:44:18;95374.28;;;3.67;75.65
75166;BME280;63747;48.042;10.088;2023-12-20T09:47:19;95375.84;;;3.79;75.31
75166;BME280;63747;48.042;10.088;2023-12-20T09:50:24;95378.56;;;3.89;75.18
75166;BME280;63747;48.042;10.088;2023-12-20T09:53:26;95385.31;;;3.91;74.86
75166;BME280;63747;48.042;10.088;2023-12-20T09:56:30;95375.53;;;3.93;74.69
75166;BME280;63747;48.042;10.088;2023-12-20T09:59:31;95377.22;;;3.94;74.51
75166;BME280;63747;48.042;10.088;2023-12-20T10:02:31;95371.38;;;3.91;74.30
75166;BME280;63747;48.042;10.088;2023-12-20T10:05:33;95364.16;;;3.83;74.57
75166;BME280;63747;48.042;10.088;2023-12-20T10:08:34;95364.97;;;3.84;74.66
75166;BME280;63747;48.042;10.088;2023-12-20T10:11:39;95365.16;;;3.92;74.65
75166;BME280;63747;48.042;10.088;2023-12-20T10:14:40;95369.53;;;4.02;74.31
75166;BME280;63747;48.042;10.088;2023-12-20T10:17:41;95359.41;;;3.98;74.20
75166;BME280;63747;48.042;10.088;2023-12-20T10:20:42;95357.63;;;3.98;74.39
75166;BME280;63747;48.042;10.088;2023-12-20T10:23:42;95355.25;;;3.95;74.19
75166;BME280;63747;48.042;10.088;2023-12-20T10:26:43;95352.66;;;3.95;73.95
75166;BME280;63747;48.042;10.088;2023-12-20T10:29:44;95353.72;;;3.93;74.27
75166;BME280;63747;48.042;10.088;2023-12-20T10:32:45;95347.97;;;3.99;74.09
75166;BME280;63747;48.042;10.088;2023-12-20T10:35:45;95339.13;;;4.00;74.16
75166;BME280;63747;48.042;10.088;2023-12-20T10:38:50;95342.50;;;4.12;73.82
75166;BME280;63747;48.042;10.088;2023-12-20T10:41:51;95351.16;;;4.33;73.36
75166;BME280;63747;48.042;10.088;2023-12-20T10:44:52;95347.28;;;4.68;72.92
75166;BME280;63747;48.042;10.088;2023-12-20T10:47:54;95338.53;;;4.98;72.46
75166;BME280;63747;48.042;10.088;2023-12-20T10:50:56;95337.44;;;5.20;71.51
75166;BME280;63747;48.042;10.088;2023-12-20T10:53:57;95323.19;;;5.32;70.75
75166;BME280;63747;48.042;10.088;2023-12-20T10:56:58;95316.00;;;5.63;70.36
75166;BME280;63747;48.042;10.088;2023-12-20T11:00:01;95310.41;;;5.76;69.31
75166;BME280;63747;48.042;10.088;2023-12-20T11:03:05;95309.31;;;5.88;68.80
75166;BME280;63747;48.042;10.088;2023-12-20T11:06:18;95306.69;;;5.97;68.08
75166;BME280;63747;48.042;10.088;2023-12-20T11:09:45;95310.56;;;5.84;68.33
75166;BME280;63747;48.042;10.088;2023-12-20T11:12:56;95291.84;;;6.06;67.26
75166;BME280;63747;48.042;10.088;2023-12-20T11:15:59;95298.47;;;6.10;67.03
75166;BME280;63747;48.042;10.088;2023-12-20T11:19:05;95297.56;;;5.92;66.93
75166;BME280;63747;48.042;10.088;2023-12-20T11:22:06;95313.47;;;5.61;67.00
75166;BME280;63747;48.042;10.088;2023-12-20T11:25:09;95308.50;;;5.49;67.77
75166;BME280;63747;48.042;10.088;2023-12-20T11:28:11;95300.66;;;5.29;67.80
75166;BME280;63747;48.042;10.088;2023-12-20T11:31:14;95293.59;;;5.10;68.19
75166;BME280;63747;48.042;10.088;2023-12-20T11:34:17;95306.59;;;5.02;68.72
75166;BME280;63747;48.042;10.088;2023-12-20T11:37:19;95321.09;;;4.97;68.99
75166;BME280;63747;48.042;10.088;2023-12-20T11:40:20;95311.28;;;4.89;68.66
75166;BME280;63747;48.042;10.088;2023-12-20T11:46:34;95310.13;;;4.72;69.11
75166;BME280;63747;48.042;10.088;2023-12-20T11:49:35;95314.25;;;4.65;69.15
75166;BME280;63747;48.042;10.088;2023-12-20T11:52:36;95312.34;;;4.77;69.15
75166;BME280;63747;48.042;10.088;2023-12-20T11:55:37;95309.34;;;5.01;68.92
75166;BME280;63747;48.042;10.088;2023-12-20T11:58:38;95299.53;;;5.03;68.71
75166;BME280;63747;48.042;10.088;2023-12-20T12:01:38;95317.06;;;4.93;68.94
75166;BME280;63747;48.042;10.088;2023-12-20T12:04:42;95315.69;;;4.88;69.03
75166;BME280;63747;48.042;10.088;2023-12-20T12:07:43;95325.91;;;4.82;69.12
75166;BME280;63747;48.042;10.088;2023-12-20T12:10:44;95322.00;;;4.67;69.78
75166;BME280;63747;48.042;10.088;2023-12-20T12:13:45;95312.75;;;4.63;69.67
75166;BME280;63747;48.042;10.088;2023-12-20T12:16:46;95314.34;;;4.54;69.10
75166;BME280;63747;48.042;10.088;2023-12-20T12:19:47;95314.63;;;4.51;69.52
75166;BME280;63747;48.042;10.088;2023-12-20T12:23:08;95317.31;;;4.30;69.89
75166;BME280;63747;48.042;10.088;2023-12-20T12:26:08;95316.56;;;4.18;70.38
75166;BME280;63747;48.042;10.088;2023-12-20T12:29:09;95310.69;;;3.95;70.87
75166;BME280;63747;48.042;10.088;2023-12-20T12:32:10;95313.31;;;3.95;71.47
75166;BME280;63747;48.042;10.088;2023-12-20T12:35:11;95308.72;;;3.88;71.29
75166;BME280;63747;48.042;10.088;2023-12-20T12:38:11;95310.38;;;3.89;71.33
75166;BME280;63747;48.042;10.088;2023-12-20T12:41:13;95308.81;;;3.86;71.43
75166;BME280;63747;48.042;10.088;2023-12-20T12:44:15;95309.28;;;3.70;71.79
75166;BME280;63747;48.042;10.088;2023-12-20T12:47:16;95310.78;;;3.63;72.19
75166;BME280;63747;48.042;10.088;2023-12-20T12:50:16;95322.09;;;3.64;71.80
75166;BME280;63747;48.042;10.088;2023-12-20T12:53:17;95316.66;;;3.56;71.92
75166;BME280;63747;48.042;10.088;2023-12-20T12:56:18;95314.72;;;3.58;72.08
75166;BME280;63747;48.042;10.088;2023-12-20T12:59:19;95317.66;;;3.64;71.88
75166;BME280;63747;48.042;10.088;2023-12-20T13:02:19;95316.59;;;3.67;71.94
75166;BME280;63747;48.042;10.088;2023-12-20T13:05:20;95307.00;;;3.56;71.95
75166;BME280;63747;48.042;10.088;2023-12-20T13:08:21;95290.25;;;3.47;72.16
75166;BME280;63747;48.042;10.088;2023-12-20T13:11:21;95293.63;;;3.59;72.13
75166;BME280;63747;48.042;10.088;2023-12-20T13:14:22;95290.25;;;3.68;72.07
75166;BME280;63747;48.042;10.088;2023-12-20T13:17:23;95299.25;;;3.75;71.87
75166;BME280;63747;48.042;10.088;2023-12-20T13:20:24;95296.25;;;3.80;71.50
75166;BME280;63747;48.042;10.088;2023-12-20T13:23:25;95293.69;;;3.69;71.50
75166;BME280;63747;48.042;10.088;2023-12-20T13:26:25;95286.81;;;3.68;71.43
75166;BME280;63747;48.042;10.088;2023-12-20T13:29:26;95297.53;;;3.65;71.46
75166;BME280;63747;48.042;10.088;2023-12-20T13:32:27;95307.19;;;3.64;71.29
75166;BME280;63747;48.042;10.088;2023-12-20T13:35:28;95308.53;;;3.59;70.96
75166;BME280;63747;48.042;10.088;2023-12-20T13:38:29;95304.66;;;3.53;70.81
75166;BME280;63747;48.042;10.088;2023-12-20T13:41:30;95313.44;;;3.52;70.54
75166;BME280;63747;48.042;10.088;2023-12-20T13:44:30;95313.75;;;3.59;70.18
75166;BME280;63747;48.042;10.088;2023-12-20T13:47:31;95317.22;;;3.59;69.64
75166;BME280;63747;48.042;10.088;2023-12-20T13:50:32;95326.16;;;3.57;69.27
75166;BME280;63747;48.042;10.088;2023-12-20T13:53:33;95318.19;;;3.58;69.02
75166;BME280;63747;48.042;10.088;2023-12-20T13:56:34;95318.50;;;3.65;69.17
75166;BME280;63747;48.042;10.088;2023-12-20T13:59:35;95319.63;;;3.72;68.86
75166;BME280;63747;48.042;10.088;2023-12-20T14:02:35;95317.97;;;3.71;68.79
75166;BME280;63747;48.042;10.088;2023-12-20T14:05:36;95322.41;;;3.70;68.72
75166;BME280;63747;48.042;10.088;2023-12-20T14:08:37;95337.16;;;3.71;68.62
75166;BME280;63747;48.042;10.088;2023-12-20T14:11:38;95332.25;;;3.78;68.70
75166;BME280;63747;48.042;10.088;2023-12-20T14:14:41;95323.88;;;3.84;68.23
75166;BME280;63747;48.042;10.088;2023-12-20T14:17:42;95333.66;;;3.82;68.10
75166;BME280;63747;48.042;10.088;2023-12-20T14:20:42;95333.38;;;3.85;67.82
75166;BME280;63747;48.042;10.088;2023-12-20T14:23:44;95332.09;;;3.79;67.66
75166;BME280;63747;48.042;10.088;2023-12-20T14:26:46;95328.53;;;3.81;66.67
75166;BME280;63747;48.042;10.088;2023-12-20T14:29:47;95329.72;;;3.67;65.68
75166;BME280;63747;48.042;10.088;2023-12-20T14:32:47;95332.00;;;3.60;65.79
75166;BME280;63747;48.042;10.088;2023-12-20T14:35:48;95341.91;;;3.57;65.31
75166;BME280;63747;48.042;10.088;2023-12-20T14:38:49;95342.41;;;3.50;64.75
75166;BME280;63747;48.042;10.088;2023-12-20T14:41:50;95344.84;;;3.42;64.63
75166;BME280;63747;48.042;10.088;2023-12-20T14:44:51;95358.28;;;3.38;64.39
75166;BME280;63747;48.042;10.088;2023-12-20T14:47:54;95365.22;;;3.28;63.94
75166;BME280;63747;48.042;10.088;2023-12-20T14:50:55;95368.91;;;3.25;64.24
75166;BME280;63747;48.042;10.088;2023-12-20T14:53:56;95369.19;;;3.22;64.55
75166;BME280;63747;48.042;10.088;2023-12-20T14:56:59;95374.06;;;3.15;64.61
75166;BME280;63747;48.042;10.088;2023-12-20T15:00:00;95376.00;;;3.13;64.38
75166;BME280;63747;48.042;10.088;2023-12-20T15:03:00;95379.81;;;3.09;64.43
75166;BME280;63747;48.042;10.088;2023-12-20T15:06:01;95380.06;;;3.06;64.47
75166;BME280;63747;48.042;10.088;2023-12-20T15:09:02;95379.97;;;2.96;64.58
75166;BME280;63747;48.042;10.088;2023-12-20T15:12:05;95384.00;;;3.01;64.89
75166;BME280;63747;48.042;10.088;2023-12-20T15:15:06;95385.66;;;3.13;64.86
75166;BME280;63747;48.042;10.088;2023-12-20T15:18:09;95376.34;;;3.20;64.64
75166;BME280;63747;48.042;10.088;2023-12-20T15:21:10;95379.66;;;3.22;64.76
75166;BME280;63747;48.042;10.088;2023-12-20T15:24:11;95373.75;;;3.09;64.06
75166;BME280;63747;48.042;10.088;2023-12-20T15:27:16;95375.56;;;2.97;63.77
75166;BME280;63747;48.042;10.088;2023-12-20T15:30:17;95363.56;;;2.83;63.83
75166;BME280;63747;48.042;10.088;2023-12-20T15:33:18;95377.25;;;2.76;63.88
75166;BME280;63747;48.042;10.088;2023-12-20T15:36:19;95368.84;;;2.61;63.90
75166;BME280;63747;48.042;10.088;2023-12-20T15:39:20;95372.88;;;2.54;64.01
75166;BME280;63747;48.042;10.088;2023-12-20T15:42:20;95378.72;;;2.46;64.10
75166;BME280;63747;48.042;10.088;2023-12-20T15:45:21;95371.22;;;2.41;64.23
75166;BME280;63747;48.042;10.088;2023-12-20T15:48:22;95372.91;;;2.31;64.07
75166;BME280;63747;48.042;10.088;2023-12-20T15:51:28;95364.31;;;2.29;64.24
75166;BME280;63747;48.042;10.088;2023-12-20T15:54:28;95361.34;;;2.23;64.28
75166;BME280;63747;48.042;10.088;2023-12-20T15:57:29;95370.41;;;2.19;64.05
75166;BME280;63747;48.042;10.088;2023-12-20T16:00:30;95365.28;;;2.06;64.10
75166;BME280;63747;48.042;10.088;2023-12-20T16:03:31;95378.69;;;2.01;64.27